Time,TemperatureF,DewpointF,PressureIn,WindDirection,WindDirectionDegrees,WindSpeedMPH,WindSpeedGustMPH,Humidity,HourlyPrecipIn,Conditions,Clouds,dailyrainin,SoftwareType,DateUTC
2013-01-16 00:02:00,24.0,19.0,29.94,SSW,205,6.0,12.0,82,0.00,,,0.00,,2013-01-16 06:02:00,
2013-01-16 00:12:00,24.0,19.0,29.94,SSW,205,6.0,12.0,82,0.00,,,0.00,,2013-01-16 06:12:00,
2013-01-16 00:22:00,24.0,19.0,29.93,South,188,7.0,9.0,82,0.00,,,0.00,,2013-01-16 06:22:00,
2013-01-16 00:32:00,23.0,18.0,29.92,South,180,6.0,12.0,82,0.00,,,0.00,,2013-01-16 06:32:00,
2013-01-16 00:42:00,23.0,18.0,29.92,South,180,6.0,12.0,82,0.00,,,0.00,,2013-01-16 06:42:00,
2013-01-16 00:53:00,23.0,18.0,29.92,SW,217,5.0,9.0,82,0.00,,,0.00,,2013-01-16 06:53:00,
2013-01-16 01:02:00,23.0,18.0,29.91,South,190,7.0,12.0,82,0.00,,,0.00,,2013-01-16 07:02:00,
2013-01-16 01:12:00,23.0,18.0,29.91,South,190,7.0,12.0,82,0.00,,,0.00,,2013-01-16 07:12:00,
2013-01-16 01:22:00,23.0,19.0,29.91,SSW,197,6.0,8.0,83,0.00,,,0.00,,2013-01-16 07:22:00,
2013-01-16 01:32:00,23.0,18.0,29.90,SSW,192,7.0,10.0,82,0.00,,,0.00,,2013-01-16 07:32:00,
2013-01-16 01:42:00,23.0,18.0,29.90,SSW,192,7.0,10.0,82,0.00,,,0.00,,2013-01-16 07:42:00,
2013-01-16 01:52:00,23.0,18.0,29.88,SSW,196,6.0,9.0,82,0.00,,,0.00,,2013-01-16 07:52:00,
2013-01-16 02:02:00,23.0,18.0,29.88,South,177,6.0,9.0,82,0.00,,,0.00,,2013-01-16 08:02:00,
2013-01-16 02:12:00,23.0,18.0,29.88,South,177,6.0,9.0,82,0.00,,,0.00,,2013-01-16 08:12:00,
2013-01-16 02:22:00,24.0,20.0,29.87,SSW,209,3.0,7.0,83,0.00,,,0.00,,2013-01-16 08:22:00,
2013-01-16 02:32:00,24.0,20.0,29.86,SSW,197,2.0,10.0,83,0.00,,,0.00,,2013-01-16 08:32:00,
2013-01-16 02:42:00,24.0,20.0,29.86,SSW,197,2.0,10.0,83,0.00,,,0.00,,2013-01-16 08:42:00,
2013-01-16 02:52:00,25.0,21.0,29.87,SSW,202,1.0,7.0,83,0.00,,,0.00,,2013-01-16 08:52:00,
2013-01-16 03:02:00,25.0,21.0,29.86,SSW,202,1.0,8.0,83,0.00,,,0.00,,2013-01-16 09:02:00,
2013-01-16 03:11:00,25.0,21.0,29.86,SSW,202,1.0,8.0,83,0.00,,,0.00,,2013-01-16 09:11:00,
2013-01-16 03:22:00,25.0,21.0,29.85,SSW,192,5.0,9.0,83,0.00,,,0.00,,2013-01-16 09:22:00,
2013-01-16 03:32:00,26.0,22.0,29.85,SSW,197,3.0,7.0,83,0.00,,,0.00,,2013-01-16 09:32:00,
2013-01-16 03:42:00,26.0,22.0,29.85,SSW,197,3.0,7.0,83,0.00,,,0.00,,2013-01-16 09:42:00,
2013-01-16 03:53:00,26.0,22.0,29.85,SSW,193,5.0,9.0,84,0.00,,,0.00,,2013-01-16 09:53:00,
2013-01-16 04:02:00,26.0,22.0,29.85,South,180,3.0,6.0,85,0.00,,,0.00,,2013-01-16 10:02:00,
2013-01-16 04:12:00,26.0,22.0,29.85,South,180,3.0,6.0,85,0.00,,,0.00,,2013-01-16 10:12:00,
2013-01-16 04:22:00,26.0,22.0,29.84,South,191,6.0,8.0,86,0.00,,,0.00,,2013-01-16 10:22:00,
2013-01-16 04:32:00,26.0,23.0,29.83,SSW,198,5.0,9.0,87,0.00,,,0.00,,2013-01-16 10:32:00,
2013-01-16 04:42:00,26.0,23.0,29.83,SSW,198,5.0,9.0,87,0.00,,,0.00,,2013-01-16 10:42:00,
2013-01-16 04:53:00,26.0,23.0,29.82,SSW,204,3.0,8.0,88,0.00,,,0.00,,2013-01-16 10:53:00,
2013-01-16 05:02:00,27.0,24.0,29.83,SSW,199,6.0,9.0,89,0.00,,,0.00,,2013-01-16 11:02:00,
2013-01-16 05:12:00,27.0,24.0,29.83,SSW,199,6.0,9.0,89,0.00,,,0.00,,2013-01-16 11:12:00,
2013-01-16 05:22:00,28.0,26.0,29.83,SSW,213,5.0,8.0,91,0.00,,,0.00,,2013-01-16 11:22:00,
2013-01-16 05:32:00,27.0,25.0,29.82,SSW,206,6.0,8.0,92,0.00,,,0.00,,2013-01-16 11:32:00,
2013-01-16 05:42:00,27.0,25.0,29.82,SSW,206,6.0,8.0,92,0.00,,,0.00,,2013-01-16 11:42:00,
2013-01-16 05:53:00,28.0,26.0,29.82,SSW,200,6.0,8.0,93,0.00,,,0.00,,2013-01-16 11:53:00,
2013-01-16 06:03:00,28.0,27.0,29.81,SSW,207,3.0,7.0,94,0.00,,,0.00,,2013-01-16 12:03:00,
2013-01-16 06:12:00,28.0,27.0,29.81,SSW,207,3.0,7.0,94,0.00,,,0.00,,2013-01-16 12:12:00,
2013-01-16 06:22:00,28.0,27.0,29.83,SW,216,3.0,5.0,95,0.00,,,0.00,,2013-01-16 12:22:00,
2013-01-16 06:33:00,29.0,28.0,29.83,SSW,203,3.0,6.0,95,0.00,,,0.00,,2013-01-16 12:33:00,
2013-01-16 06:43:00,29.0,28.0,29.83,SSW,203,3.0,6.0,95,0.00,,,0.00,,2013-01-16 12:43:00,
2013-01-16 06:53:00,30.0,29.0,29.83,SSW,203,3.0,6.0,98,0.00,,,0.00,,2013-01-16 12:53:00,
2013-01-16 07:02:00,31.0,31.0,29.83,SSW,203,2.0,6.0,98,0.00,,,0.00,,2013-01-16 13:02:00,
2013-01-16 07:12:00,31.0,31.0,29.83,SSW,203,2.0,6.0,98,0.00,,,0.00,,2013-01-16 13:12:00,
2013-01-16 07:22:00,33.0,32.0,29.84,WSW,237,5.0,6.0,98,0.00,,,0.00,,2013-01-16 13:22:00,
2013-01-16 07:33:00,34.0,34.0,29.85,WSW,241,2.0,5.0,98,0.00,,,0.00,,2013-01-16 13:33:00,
2013-01-16 07:43:00,34.0,34.0,29.85,WSW,241,2.0,5.0,98,0.00,,,0.00,,2013-01-16 13:43:00,
2013-01-16 07:53:00,34.0,34.0,29.86,West,262,3.0,6.0,98,0.00,,,0.00,,2013-01-16 13:53:00,
2013-01-16 08:03:00,35.0,34.0,29.86,West,264,3.0,6.0,97,0.00,,,0.00,,2013-01-16 14:03:00,
2013-01-16 08:12:00,35.0,34.0,29.86,West,264,3.0,6.0,97,0.00,,,0.00,,2013-01-16 14:12:00,
2013-01-16 08:22:00,35.0,34.0,29.85,WSW,258,3.0,7.0,97,0.00,,,0.00,,2013-01-16 14:22:00,
2013-01-16 08:32:00,35.0,34.0,29.86,West,270,5.0,7.0,98,0.00,,,0.00,,2013-01-16 14:32:00,
2013-01-16 08:42:00,35.0,34.0,29.86,West,270,5.0,7.0,98,0.00,,,0.00,,2013-01-16 14:42:00,
2013-01-16 08:53:00,35.0,34.0,29.87,West,276,6.0,7.0,97,0.00,,,0.00,,2013-01-16 14:53:00,
2013-01-16 09:03:00,36.0,35.0,29.88,WNW,285,6.0,8.0,97,0.00,,,0.00,,2013-01-16 15:03:00,
2013-01-16 09:12:00,36.0,35.0,29.88,WNW,285,6.0,8.0,97,0.00,,,0.00,,2013-01-16 15:12:00,
2013-01-16 09:22:00,36.0,35.0,29.89,West,269,5.0,6.0,96,0.00,,,0.00,,2013-01-16 15:22:00,
2013-01-16 09:33:00,37.0,36.0,29.89,WNW,284,3.0,6.0,96,0.00,,,0.00,,2013-01-16 15:33:00,
2013-01-16 09:43:00,37.0,36.0,29.89,WNW,284,3.0,6.0,96,0.00,,,0.00,,2013-01-16 15:43:00,
2013-01-16 09:53:00,37.0,35.0,29.89,West,280,5.0,7.0,94,0.00,,,0.00,,2013-01-16 15:53:00,
2013-01-16 10:03:00,38.0,36.0,29.89,WNW,288,6.0,7.0,93,0.00,,,0.00,,2013-01-16 16:03:00,
2013-01-16 10:12:00,38.0,36.0,29.89,WNW,288,6.0,7.0,93,0.00,,,0.00,,2013-01-16 16:12:00,
2013-01-16 10:22:00,39.0,36.0,29.90,WNW,288,8.0,12.0,89,0.00,,,0.00,,2013-01-16 16:22:00,
2013-01-16 10:32:00,40.0,36.0,29.90,WNW,287,8.0,12.0,87,0.00,,,0.00,,2013-01-16 16:32:00,
2013-01-16 10:42:00,40.0,36.0,29.90,WNW,287,8.0,12.0,87,0.00,,,0.00,,2013-01-16 16:42:00,
2013-01-16 10:53:00,40.0,36.0,29.91,West,279,8.0,12.0,85,0.00,,,0.00,,2013-01-16 16:53:00,
2013-01-16 11:02:00,41.0,37.0,29.91,WNW,289,10.0,14.0,84,0.00,,,0.00,,2013-01-16 17:02:00,
2013-01-16 11:12:00,41.0,37.0,29.91,WNW,289,10.0,14.0,84,0.00,,,0.00,,2013-01-16 17:12:00,
2013-01-16 11:22:00,42.0,37.0,29.91,West,272,10.0,15.0,81,0.00,,,0.00,,2013-01-16 17:22:00,
2013-01-16 11:33:00,43.0,37.0,29.91,WNW,286,9.0,15.0,78,0.00,,,0.00,,2013-01-16 17:33:00,
2013-01-16 11:43:00,43.0,37.0,29.91,WNW,286,9.0,15.0,78,0.00,,,0.00,,2013-01-16 17:43:00,
2013-01-16 11:53:00,43.0,36.0,29.91,WNW,294,10.0,15.0,77,0.00,,,0.00,,2013-01-16 17:53:00,
2013-01-16 12:02:00,44.0,37.0,29.90,WNW,298,8.0,13.0,76,0.00,,,0.00,,2013-01-16 18:02:00,
2013-01-16 12:12:00,45.0,37.0,29.89,WNW,287,10.0,13.0,73,0.00,,,0.00,,2013-01-16 18:12:00,
2013-01-16 12:23:00,45.0,37.0,29.89,WNW,287,10.0,13.0,73,0.00,,,0.00,,2013-01-16 18:23:00,
2013-01-16 12:33:00,45.0,37.0,29.88,WNW,301,8.0,13.0,72,0.00,,,0.00,,2013-01-16 18:33:00,
2013-01-16 12:42:00,45.0,37.0,29.88,WNW,301,8.0,13.0,72,0.00,,,0.00,,2013-01-16 18:42:00,
2013-01-16 12:53:00,46.0,37.0,29.88,WNW,291,13.0,17.0,70,0.00,,,0.00,,2013-01-16 18:53:00,
2013-01-16 13:03:00,46.0,36.0,29.89,WNW,283,12.0,17.0,69,0.00,,,0.00,,2013-01-16 19:03:00,
2013-01-16 13:12:00,46.0,36.0,29.89,WNW,283,12.0,17.0,69,0.00,,,0.00,,2013-01-16 19:12:00,
2013-01-16 13:23:00,46.0,35.0,29.88,WNW,289,13.0,20.0,66,0.00,,,0.00,,2013-01-16 19:23:00,
2013-01-16 13:33:00,46.0,35.0,29.88,WNW,291,15.0,18.0,66,0.00,,,0.00,,2013-01-16 19:33:00,
2013-01-16 13:42:00,46.0,35.0,29.88,WNW,291,15.0,18.0,66,0.00,,,0.00,,2013-01-16 19:42:00,
2013-01-16 13:53:00,47.0,36.0,29.89,West,275,10.0,14.0,66,0.00,,,0.00,,2013-01-16 19:53:00,
2013-01-16 14:03:00,47.0,36.0,29.89,WNW,292,12.0,17.0,66,0.00,,,0.00,,2013-01-16 20:03:00,
2013-01-16 14:12:00,47.0,36.0,29.89,WNW,292,12.0,17.0,66,0.00,,,0.00,,2013-01-16 20:12:00,
2013-01-16 14:23:00,48.0,36.0,29.89,West,280,13.0,21.0,64,0.00,,,0.00,,2013-01-16 20:23:00,
2013-01-16 14:33:00,47.0,36.0,29.89,West,277,9.0,16.0,66,0.00,,,0.00,,2013-01-16 20:33:00,
2013-01-16 14:42:00,47.0,36.0,29.89,West,277,9.0,16.0,66,0.00,,,0.00,,2013-01-16 20:42:00,
2013-01-16 14:53:00,47.0,36.0,29.91,WNW,292,14.0,21.0,66,0.00,,,0.00,,2013-01-16 20:53:00,
2013-01-16 15:02:00,47.0,36.0,29.91,WNW,293,13.0,17.0,66,0.00,,,0.00,,2013-01-16 21:02:00,
2013-01-16 15:12:00,47.0,36.0,29.91,WNW,293,13.0,17.0,66,0.00,,,0.00,,2013-01-16 21:12:00,
2013-01-16 15:22:00,47.0,37.0,29.92,WNW,299,15.0,20.0,67,0.00,,,0.00,,2013-01-16 21:22:00,
2013-01-16 15:33:00,47.0,37.0,29.93,WNW,298,16.0,25.0,67,0.00,,,0.00,,2013-01-16 21:33:00,
2013-01-16 15:43:00,47.0,37.0,29.93,WNW,298,16.0,25.0,67,0.00,,,0.00,,2013-01-16 21:43:00,
2013-01-16 15:53:00,46.0,36.0,29.93,WNW,298,15.0,21.0,69,0.00,,,0.00,,2013-01-16 21:53:00,
2013-01-16 16:02:00,46.0,37.0,29.95,WNW,303,12.0,16.0,70,0.00,,,0.00,,2013-01-16 22:02:00,
2013-01-16 16:12:00,46.0,37.0,29.95,WNW,303,12.0,16.0,70,0.00,,,0.00,,2013-01-16 22:12:00,
2013-01-16 16:22:00,45.0,35.0,29.96,NW,308,16.0,22.0,69,0.00,,,0.00,,2013-01-16 22:22:00,
2013-01-16 16:33:00,45.0,36.0,29.97,NW,310,16.0,23.0,70,0.00,,,0.00,,2013-01-16 22:33:00,
2013-01-16 16:43:00,45.0,36.0,29.97,NW,310,16.0,23.0,70,0.00,,,0.00,,2013-01-16 22:43:00,
2013-01-16 16:53:00,44.0,36.0,29.99,NW,304,15.0,21.0,74,0.00,,,0.00,,2013-01-16 22:53:00,
2013-01-16 17:02:00,44.0,36.0,30.00,NW,305,17.0,24.0,74,0.00,,,0.00,,2013-01-16 23:02:00,
2013-01-16 17:12:00,42.0,36.0,30.01,NW,308,12.0,13.0,78,0.00,,,0.00,,2013-01-16 23:12:00,
2013-01-16 17:22:00,42.0,36.0,30.01,NW,308,12.0,13.0,78,0.00,,,0.00,,2013-01-16 23:22:00,
2013-01-16 17:32:00,42.0,36.0,30.01,NW,314,13.0,14.0,79,0.00,,,0.00,,2013-01-16 23:32:00,
2013-01-16 17:42:00,42.0,36.0,30.01,NW,314,13.0,14.0,79,0.00,,,0.00,,2013-01-16 23:42:00,
2013-01-16 17:53:00,41.0,36.0,30.03,NW,314,12.0,14.0,82,0.00,,,0.00,,2013-01-16 23:53:00,
2013-01-16 18:02:00,41.0,36.0,30.04,NW,326,8.0,9.0,83,0.00,,,0.00,,2013-01-17 00:02:00,
2013-01-16 18:12:00,41.0,36.0,30.04,NW,326,8.0,9.0,83,0.00,,,0.00,,2013-01-17 00:12:00,
2013-01-16 18:22:00,40.0,36.0,30.06,NNW,331,9.0,15.0,84,0.00,,,0.00,,2013-01-17 00:22:00,
2013-01-16 18:32:00,40.0,36.0,30.07,NW,319,8.0,12.0,85,0.00,,,0.00,,2013-01-17 00:32:00,
2013-01-16 18:42:00,40.0,36.0,30.07,NW,319,8.0,12.0,85,0.00,,,0.00,,2013-01-17 00:42:00,
2013-01-16 18:52:00,39.0,36.0,30.09,NNW,333,8.0,12.0,88,0.00,,,0.00,,2013-01-17 00:52:00,
2013-01-16 19:02:00,39.0,36.0,30.09,NNW,337,7.0,9.0,89,0.00,,,0.00,,2013-01-17 01:02:00,
2013-01-16 19:12:00,39.0,36.0,30.09,NNW,337,7.0,9.0,89,0.00,,,0.00,,2013-01-17 01:12:00,
2013-01-16 19:22:00,39.0,37.0,30.10,NW,326,8.0,10.0,92,0.00,,,0.00,,2013-01-17 01:22:00,
2013-01-16 19:32:00,38.0,36.0,30.11,North,352,7.0,8.0,94,0.00,,,0.00,,2013-01-17 01:32:00,
2013-01-16 19:42:00,38.0,36.0,30.11,North,352,7.0,8.0,94,0.00,,,0.00,,2013-01-17 01:42:00,
2013-01-16 19:52:00,35.0,34.0,30.13,North,358,12.0,15.0,98,0.00,,,0.00,,2013-01-17 01:52:00,
2013-01-16 20:02:00,34.0,34.0,30.14,North,358,6.0,8.0,98,0.00,,,0.00,,2013-01-17 02:02:00,
2013-01-16 20:12:00,34.0,34.0,30.14,North,358,6.0,8.0,98,0.00,,,0.00,,2013-01-17 02:12:00,
2013-01-16 20:22:00,32.0,32.0,30.15,North,357,7.0,9.0,99,0.00,,,0.00,,2013-01-17 02:22:00,
2013-01-16 20:32:00,31.0,31.0,30.16,North,349,6.0,7.0,99,0.00,,,0.00,,2013-01-17 02:32:00,
2013-01-16 20:42:00,31.0,31.0,30.16,North,349,6.0,7.0,99,0.00,,,0.00,,2013-01-17 02:42:00,
2013-01-16 20:52:00,31.0,31.0,30.16,North,349,6.0,7.0,99,0.00,,,0.00,,2013-01-17 02:52:00,
2013-01-16 21:02:00,30.0,30.0,30.18,NNW,340,7.0,10.0,99,0.00,,,0.00,,2013-01-17 03:02:00,
2013-01-16 21:12:00,30.0,30.0,30.18,NNW,340,7.0,10.0,99,0.00,,,0.00,,2013-01-17 03:12:00,
2013-01-16 21:22:00,30.0,30.0,30.19,North,354,8.0,10.0,99,0.00,,,0.00,,2013-01-17 03:22:00,
2013-01-16 21:32:00,30.0,30.0,30.20,NNW,343,10.0,15.0,99,0.00,,,0.00,,2013-01-17 03:32:00,
2013-01-16 21:42:00,30.0,30.0,30.20,NNW,343,10.0,15.0,99,0.00,,,0.00,,2013-01-17 03:42:00,
2013-01-16 21:52:00,29.0,29.0,30.22,NNW,340,6.0,6.0,99,0.00,,,0.00,,2013-01-17 03:52:00,
2013-01-16 22:02:00,28.0,28.0,30.22,North,3,6.0,8.0,98,0.00,,,0.00,,2013-01-17 04:02:00,
2013-01-16 22:12:00,27.0,26.0,30.22,NNW,340,8.0,9.0,97,0.00,,,0.00,,2013-01-17 04:12:00,
2013-01-16 22:22:00,27.0,26.0,30.22,NNW,340,8.0,9.0,97,0.00,,,0.00,,2013-01-17 04:22:00,
2013-01-16 22:32:00,26.0,25.0,30.23,NNW,341,8.0,10.0,97,0.00,,,0.00,,2013-01-17 04:32:00,
2013-01-16 22:42:00,26.0,25.0,30.23,NNW,341,8.0,10.0,97,0.00,,,0.00,,2013-01-17 04:42:00,
2013-01-16 22:52:00,25.0,24.0,30.24,North,359,5.0,7.0,96,0.00,,,0.00,,2013-01-17 04:52:00,
2013-01-16 23:04:00,25.0,24.0,30.25,North,352,3.0,6.0,96,0.00,,,0.00,,2013-01-17 05:04:00,
2013-01-16 23:12:00,25.0,24.0,30.25,North,352,3.0,6.0,96,0.00,,,0.00,,2013-01-17 05:12:00,
2013-01-16 23:22:00,24.0,22.0,30.25,NNW,346,6.0,8.0,92,0.00,,,0.00,,2013-01-17 05:22:00,
2013-01-16 23:32:00,23.0,21.0,30.25,North,355,3.0,6.0,92,0.00,,,0.00,,2013-01-17 05:32:00,
2013-01-16 23:42:00,23.0,21.0,30.25,North,355,3.0,6.0,92,0.00,,,0.00,,2013-01-17 05:42:00,
2013-01-16 23:53:00,22.0,18.0,30.26,North,352,5.0,6.0,86,0.00,,,0.00,,2013-01-17 05:53:00,